Terminal Aerodrome Forecast
Issued by NWS

Home | Current Version | Previous Version | Text Only | Print | Product List | Glossary Off
Versions: 1 2 3 4 5 6 7 8 9 10 11 12 13 14 15 16 17 18 19 20 21 22

000
FTUS43 KMPX 292300
TAFRNH
TAF
KRNH 292327Z 3000/3024 VRB03KT 6SM -SHRA SCT025 BKN040
     FM300600 00000KT P6SM SCT015 BKN090
     FM300800 00000KT 3/4SM BR VV003
     FM301400 34003KT 4SM BR OVC007
     FM301600 34004KT P6SM BKN010 OVC020
     FM301800 34005KT P6SM BKN025
     FM302100 35004KT P6SM SCT025=

USA.gov is the U.S. government's official web portal to all federal, state and local government web resources and services.